createdAt,value
2023-03-11T00:00:41.463Z,2.68
2023-03-11T00:01:41.521Z,2.68
2023-03-11T00:02:41.426Z,2.67
2023-03-11T00:03:41.425Z,2.66
2023-03-11T00:04:41.407Z,2.65
2023-03-11T00:05:41.520Z,2.63
2023-03-11T00:06:41.379Z,2.62
2023-03-11T00:07:41.372Z,2.61
2023-03-11T00:08:41.368Z,2.60
2023-03-11T00:09:41.350Z,2.60
2023-03-11T00:10:41.359Z,2.60
2023-03-11T00:11:41.325Z,2.61
2023-03-11T00:12:41.296Z,2.61
2023-03-11T00:13:41.304Z,2.62
2023-03-11T00:14:41.295Z,2.63
2023-03-11T00:15:41.275Z,2.64
2023-03-11T00:16:41.321Z,2.64
2023-03-11T00:17:41.257Z,2.64
2023-03-11T00:18:41.230Z,2.64
2023-03-11T00:19:41.218Z,2.64
2023-03-11T00:20:41.218Z,2.64
2023-03-11T00:21:41.190Z,2.63
2023-03-11T00:22:41.172Z,2.60
2023-03-11T00:23:41.173Z,2.58
2023-03-11T00:24:41.159Z,2.54
2023-03-11T00:25:41.167Z,2.50
2023-03-11T00:26:41.120Z,2.45
2023-03-11T00:27:41.135Z,2.41
2023-03-11T00:28:41.109Z,2.38
2023-03-11T00:29:41.109Z,2.35
2023-03-11T00:30:41.154Z,2.33
2023-03-11T00:31:41.069Z,2.32
2023-03-11T00:32:41.098Z,2.32
2023-03-11T00:33:41.029Z,2.32
2023-03-11T00:34:41.025Z,2.33
2023-03-11T00:35:41.141Z,2.33
2023-03-11T00:36:41.007Z,2.33
2023-03-11T00:37:40.988Z,2.31
2023-03-11T00:38:41.075Z,2.30
2023-03-11T00:39:40.961Z,2.28
2023-03-11T00:40:40.939Z,2.26
2023-03-11T00:41:40.945Z,2.25
2023-03-11T00:42:40.915Z,2.23
2023-03-11T00:43:40.896Z,2.22
2023-03-11T00:44:40.882Z,2.22
2023-03-11T00:45:40.871Z,2.21
2023-03-11T00:46:40.877Z,2.19
2023-03-11T00:47:40.846Z,2.19
2023-03-11T00:48:40.827Z,2.19
2023-03-11T00:49:40.818Z,2.18
2023-03-11T00:50:40.807Z,2.16
2023-03-11T00:51:40.806Z,2.15
2023-03-11T00:52:40.777Z,2.13
2023-03-11T00:53:40.781Z,2.11
2023-03-11T00:54:40.753Z,2.10
2023-03-11T00:55:40.741Z,2.08
2023-03-11T00:56:40.758Z,2.06
2023-03-11T00:57:40.724Z,2.05
2023-03-11T00:58:40.707Z,2.05
2023-03-11T00:59:40.689Z,2.05
2023-03-11T01:00:40.691Z,2.04
2023-03-11T01:01:40.718Z,2.04
2023-03-11T01:02:40.656Z,2.04
2023-03-11T01:03:40.650Z,2.04
2023-03-11T01:04:40.811Z,2.04
2023-03-11T01:05:40.628Z,2.04
2023-03-11T01:06:45.596Z,2.03
2023-03-11T01:07:40.603Z,2.03
2023-03-11T01:08:40.573Z,2.02
2023-03-11T01:09:40.576Z,2.02
2023-03-11T01:10:40.546Z,2.01
2023-03-11T01:11:40.545Z,2.02
2023-03-11T01:12:40.529Z,2.01
2023-03-11T01:13:40.500Z,1.99
2023-03-11T01:14:40.493Z,1.98
2023-03-11T01:15:40.507Z,1.97
2023-03-11T01:16:40.481Z,1.96
2023-03-11T01:17:40.464Z,1.97
2023-03-11T01:18:40.453Z,1.97
2023-03-11T01:19:40.432Z,1.98
2023-03-11T01:20:40.434Z,1.99
2023-03-11T01:21:40.423Z,1.99
2023-03-11T01:22:40.406Z,1.99
2023-03-11T01:23:40.377Z,1.99
2023-03-11T01:24:40.383Z,1.99
2023-03-11T01:25:40.373Z,1.99
2023-03-11T01:26:40.340Z,1.99
2023-03-11T01:27:40.331Z,1.98
2023-03-11T01:28:40.316Z,1.98
2023-03-11T01:29:40.307Z,1.97
2023-03-11T01:30:40.296Z,1.96
2023-03-11T01:31:40.293Z,1.95
2023-03-11T01:32:40.334Z,1.93
2023-03-11T01:33:40.256Z,1.92
2023-03-11T01:34:40.244Z,1.90
2023-03-11T01:35:40.246Z,1.90
2023-03-11T01:36:40.212Z,1.89
2023-03-11T01:37:40.196Z,1.88
2023-03-11T01:38:40.192Z,1.88
2023-03-11T01:39:40.169Z,1.88
2023-03-11T01:40:40.164Z,1.88
2023-03-11T01:41:40.141Z,1.88
2023-03-11T01:42:40.132Z,1.88
2023-03-11T01:43:40.129Z,1.87
2023-03-11T01:44:40.107Z,1.86
2023-03-11T01:45:40.102Z,1.85
2023-03-11T01:46:40.176Z,1.84
2023-03-11T01:47:40.084Z,1.83
2023-03-11T01:48:40.063Z,1.80
2023-03-11T01:49:40.042Z,1.78
2023-03-11T01:50:40.024Z,1.77
2023-03-11T01:51:40.015Z,1.77
2023-03-11T01:52:40.008Z,1.78
2023-03-11T01:53:40.028Z,1.78
2023-03-11T01:54:39.979Z,1.78
2023-03-11T01:55:39.963Z,1.78
2023-03-11T01:56:39.948Z,1.77
2023-03-11T01:57:39.940Z,1.77
2023-03-11T01:58:39.944Z,1.77
2023-03-11T01:59:39.911Z,1.77
2023-03-11T02:00:39.895Z,1.77
2023-03-11T02:01:39.907Z,1.78
2023-03-11T02:02:39.918Z,1.78
2023-03-11T02:03:39.870Z,1.78
2023-03-11T02:04:39.865Z,1.78
2023-03-11T02:05:39.837Z,1.77
2023-03-11T02:06:39.818Z,1.75
2023-03-11T02:07:39.801Z,1.71
2023-03-11T02:08:39.809Z,1.67
2023-03-11T02:09:39.783Z,1.63
2023-03-11T02:10:39.773Z,1.61
2023-03-11T02:11:39.758Z,1.59
2023-03-11T02:12:39.745Z,1.58
2023-03-11T02:13:39.745Z,1.58
2023-03-11T02:14:39.723Z,1.58
2023-03-11T02:15:40.223Z,1.58
2023-03-11T02:16:39.703Z,1.58
2023-03-11T02:17:39.687Z,1.58
2023-03-11T02:18:39.693Z,1.57
2023-03-11T02:19:39.662Z,1.55
2023-03-11T02:20:39.644Z,1.54
2023-03-11T02:21:39.627Z,1.52
2023-03-11T02:22:39.621Z,1.50
2023-03-11T02:23:39.615Z,1.49
2023-03-11T02:24:39.589Z,1.47
2023-03-11T02:25:39.576Z,1.44
2023-03-11T02:26:39.565Z,1.43
2023-03-11T02:27:39.572Z,1.42
2023-03-11T02:28:39.565Z,1.42
2023-03-11T02:29:39.530Z,1.42
2023-03-11T02:30:39.516Z,1.43
2023-03-11T02:31:41.799Z,1.43
2023-03-11T02:32:39.533Z,1.42
2023-03-11T02:33:39.478Z,1.41
2023-03-11T02:34:39.496Z,1.39
2023-03-11T02:35:39.490Z,1.37
2023-03-11T02:36:39.441Z,1.34
2023-03-11T02:37:39.436Z,1.32
2023-03-11T02:38:39.421Z,1.31
2023-03-11T02:39:39.407Z,1.31
2023-03-11T02:40:39.392Z,1.31
2023-03-11T02:41:39.380Z,1.30
2023-03-11T02:42:39.375Z,1.29
2023-03-11T02:43:39.352Z,1.28
2023-03-11T02:44:39.350Z,1.26
2023-03-11T02:45:39.324Z,1.25
2023-03-11T02:46:39.350Z,1.24
2023-03-11T02:47:39.309Z,1.22
2023-03-11T02:48:39.302Z,1.20
2023-03-11T02:49:39.284Z,1.18
2023-03-11T02:50:39.258Z,1.17
2023-03-11T02:51:39.239Z,1.16
2023-03-11T02:52:39.230Z,1.17
2023-03-11T02:53:39.230Z,1.18
2023-03-11T02:54:39.263Z,1.19
2023-03-11T02:55:39.194Z,1.20
2023-03-11T02:56:39.176Z,1.20
2023-03-11T02:57:39.186Z,1.19
2023-03-11T02:58:39.154Z,1.18
2023-03-11T02:59:39.134Z,1.17
2023-03-11T03:00:39.161Z,1.17
2023-03-11T03:01:39.127Z,1.17
2023-03-11T03:02:39.108Z,1.18
2023-03-11T03:03:39.082Z,1.18
2023-03-11T03:04:39.075Z,1.18
2023-03-11T03:05:39.073Z,1.19
2023-03-11T03:06:39.065Z,1.20
2023-03-11T03:07:39.029Z,1.20
2023-03-11T03:08:39.019Z,1.20
2023-03-11T03:09:39.033Z,1.21
2023-03-11T03:10:39.013Z,1.20
2023-03-11T03:11:39.001Z,1.18
2023-03-11T03:12:38.980Z,1.16
2023-03-11T03:13:38.952Z,1.14
2023-03-11T03:14:38.951Z,1.11
2023-03-11T03:15:38.941Z,1.09
2023-03-11T03:16:39.187Z,1.07
2023-03-11T03:17:38.958Z,1.06
2023-03-11T03:18:38.898Z,1.05
2023-03-11T03:19:38.882Z,1.03
2023-03-11T03:20:38.880Z,1.01
2023-03-11T03:21:38.852Z,1.00
2023-03-11T03:22:38.867Z,0.99
2023-03-11T03:23:38.828Z,0.99
2023-03-11T03:24:38.825Z,0.98
2023-03-11T03:25:38.815Z,0.97
2023-03-11T03:26:38.789Z,0.96
2023-03-11T03:27:38.784Z,0.96
2023-03-11T03:28:38.770Z,0.95
2023-03-11T03:29:38.794Z,0.95
2023-03-11T03:30:38.749Z,0.96
2023-03-11T03:31:38.790Z,0.97
2023-03-11T03:32:38.784Z,0.98
2023-03-11T03:33:38.711Z,0.99
2023-03-11T03:34:38.742Z,0.99
2023-03-11T03:35:38.707Z,0.99
2023-03-11T03:36:38.668Z,0.98
2023-03-11T03:37:38.655Z,0.97
2023-03-11T03:38:38.652Z,0.96
2023-03-11T03:39:38.623Z,0.96
2023-03-11T03:40:38.622Z,0.96
2023-03-11T03:41:38.605Z,0.97
2023-03-11T03:42:38.584Z,0.96
2023-03-11T03:43:38.571Z,0.95
2023-03-11T03:44:38.588Z,0.94
2023-03-11T03:45:38.632Z,0.93
2023-03-11T03:46:38.558Z,0.92
2023-03-11T03:47:38.518Z,0.92
2023-03-11T03:48:38.513Z,0.92
2023-03-11T03:49:38.511Z,0.93
2023-03-11T03:50:38.486Z,0.93
2023-03-11T03:51:38.483Z,0.92
2023-03-11T03:52:38.467Z,0.90
2023-03-11T03:53:38.452Z,0.87
2023-03-11T03:54:38.446Z,0.84
2023-03-11T03:55:38.424Z,0.83
2023-03-11T03:56:38.422Z,0.81
2023-03-11T03:57:38.394Z,0.80
2023-03-11T03:58:38.396Z,0.80
2023-03-11T03:59:38.376Z,0.81
2023-03-11T04:00:38.359Z,0.81
2023-03-11T04:01:38.391Z,0.82
2023-03-11T04:02:38.365Z,0.82
2023-03-11T04:03:38.474Z,0.83
2023-03-11T04:04:38.315Z,0.83
2023-03-11T04:05:38.299Z,0.82
2023-03-11T04:06:38.288Z,0.81
2023-03-11T04:07:38.285Z,0.81
2023-03-11T04:08:38.259Z,0.80
2023-03-11T04:09:38.250Z,0.80
2023-03-11T04:10:38.234Z,0.79
2023-03-11T04:11:38.230Z,0.78
2023-03-11T04:12:38.221Z,0.77
2023-03-11T04:13:38.190Z,0.76
2023-03-11T04:14:38.196Z,0.76
2023-03-11T04:15:38.166Z,0.75
2023-03-11T04:16:38.214Z,0.75
2023-03-11T04:17:38.150Z,0.75
2023-03-11T04:18:38.142Z,0.76
2023-03-11T04:19:38.123Z,0.77
2023-03-11T04:20:38.116Z,0.78
2023-03-11T04:21:38.092Z,0.78
2023-03-11T04:22:38.104Z,0.79
2023-03-11T04:23:38.063Z,0.80
2023-03-11T04:24:38.056Z,0.80
2023-03-11T04:25:38.043Z,0.80
2023-03-11T04:26:38.045Z,0.79
2023-03-11T04:27:38.029Z,0.78
2023-03-11T04:28:38.009Z,0.77
2023-03-11T04:29:38.000Z,0.77
2023-03-11T04:30:38.049Z,0.77
2023-03-11T04:31:37.990Z,0.77
2023-03-11T04:32:38.210Z,0.76
2023-03-11T04:33:37.938Z,0.76
2023-03-11T04:34:37.928Z,0.76
2023-03-11T04:35:37.967Z,0.75
2023-03-11T04:36:37.898Z,0.74
2023-03-11T04:37:37.906Z,0.73
2023-03-11T04:38:37.878Z,0.73
2023-03-11T04:39:37.875Z,0.72
2023-03-11T04:40:37.849Z,0.72
2023-03-11T04:41:37.838Z,0.73
2023-03-11T04:42:37.822Z,0.73
2023-03-11T04:43:37.806Z,0.74
2023-03-11T04:44:37.799Z,0.74
2023-03-11T04:45:37.793Z,0.74
2023-03-11T04:46:37.809Z,0.75
2023-03-11T04:47:37.758Z,0.75
2023-03-11T04:48:37.746Z,0.76
2023-03-11T04:49:37.730Z,0.77
2023-03-11T04:50:37.722Z,0.78
2023-03-11T04:51:37.711Z,0.78
2023-03-11T04:52:37.724Z,0.78
2023-03-11T04:53:37.703Z,0.78
2023-03-11T04:54:37.667Z,0.77
2023-03-11T04:55:37.657Z,0.77
2023-03-11T04:56:37.638Z,0.77
2023-03-11T04:57:37.641Z,0.77
2023-03-11T04:58:37.628Z,0.78
2023-03-11T04:59:37.636Z,0.78
2023-03-11T05:00:37.593Z,0.79
2023-03-11T05:01:37.714Z,0.80
2023-03-11T05:02:37.568Z,0.82
2023-03-11T05:03:37.565Z,0.83
2023-03-11T05:04:37.571Z,0.84
2023-03-11T05:05:37.531Z,0.84
2023-03-11T05:06:37.508Z,0.84
2023-03-11T05:07:37.498Z,0.84
2023-03-11T05:08:37.516Z,0.85
2023-03-11T05:09:37.469Z,0.85
2023-03-11T05:10:37.457Z,0.86
2023-03-11T05:11:37.443Z,0.87
2023-03-11T05:12:37.448Z,0.88
2023-03-11T05:13:37.421Z,0.90
2023-03-11T05:14:37.408Z,0.91
2023-03-11T05:15:37.523Z,0.91
2023-03-11T05:16:37.381Z,0.90
2023-03-11T05:17:37.365Z,0.88
2023-03-11T05:18:37.378Z,0.87
2023-03-11T05:20:30.955Z,2.03
2023-03-11T05:21:31.936Z,1.58
2023-03-11T05:22:31.928Z,1.28
2023-03-11T05:23:32.535Z,1.12
2023-03-11T05:24:31.905Z,1.03
2023-03-11T05:25:31.891Z,0.99
2023-03-11T05:26:31.880Z,0.96
2023-03-11T05:27:31.861Z,0.95
2023-03-11T05:28:32.042Z,0.94
2023-03-11T05:29:31.833Z,0.95
2023-03-11T05:30:31.838Z,0.96
2023-03-11T05:31:31.848Z,0.97
2023-03-11T05:32:31.823Z,0.98
2023-03-11T05:33:31.782Z,0.99
2023-03-11T05:34:31.781Z,1.01
2023-03-11T05:35:31.766Z,1.02
2023-03-11T05:36:31.760Z,1.04
2023-03-11T05:37:31.726Z,1.06
2023-03-11T05:38:31.716Z,1.07
2023-03-11T05:39:31.711Z,1.09
2023-03-11T05:40:31.697Z,1.10
2023-03-11T05:41:31.681Z,1.11
2023-03-11T05:42:31.672Z,1.12
2023-03-11T05:43:31.650Z,1.12
2023-03-11T05:44:31.656Z,1.12
2023-03-11T05:45:31.658Z,1.13
2023-03-11T05:46:31.683Z,1.13
2023-03-11T05:47:31.619Z,1.14
2023-03-11T05:48:32.595Z,1.14
2023-03-11T05:49:31.604Z,1.14
2023-03-11T05:50:31.618Z,1.13
2023-03-11T05:51:31.558Z,1.11
2023-03-11T05:52:31.593Z,1.09
2023-03-11T05:53:31.524Z,1.07
2023-03-11T05:54:31.527Z,1.05
2023-03-11T05:55:31.681Z,1.04
2023-03-11T05:56:31.500Z,1.02
2023-03-11T05:57:31.523Z,0.99
2023-03-11T05:58:32.193Z,0.96
2023-03-11T05:59:31.506Z,0.94
2023-03-11T06:00:31.462Z,0.93
2023-03-11T06:01:31.442Z,0.92
2023-03-11T06:02:31.441Z,0.91
2023-03-11T06:03:31.519Z,0.91
2023-03-11T06:04:31.473Z,0.90
2023-03-11T06:05:31.411Z,0.90
2023-03-11T06:06:31.380Z,0.90
2023-03-11T06:07:31.351Z,0.89
2023-03-11T06:08:31.334Z,0.89
2023-03-11T06:09:31.314Z,0.88
2023-03-11T06:10:31.331Z,0.87
2023-03-11T06:11:31.290Z,0.86
2023-03-11T06:12:31.289Z,0.84
2023-03-11T06:13:31.280Z,0.83
2023-03-11T06:14:31.259Z,0.82
2023-03-11T06:15:31.251Z,0.81
2023-03-11T06:16:31.248Z,0.80
2023-03-11T06:17:31.226Z,0.80
2023-03-11T06:18:31.218Z,0.79
2023-03-11T06:19:31.208Z,0.79
2023-03-11T06:20:31.210Z,0.77
2023-03-11T06:21:31.173Z,0.76
2023-03-11T06:22:31.150Z,0.74
2023-03-11T06:23:31.145Z,0.73
2023-03-11T06:24:31.145Z,0.72
2023-03-11T06:25:31.135Z,0.71
2023-03-11T06:26:31.125Z,0.71
2023-03-11T06:27:31.085Z,0.71
2023-03-11T06:28:31.131Z,0.71
2023-03-11T06:29:31.087Z,0.71
2023-03-11T06:30:31.340Z,0.72
2023-03-11T06:31:31.072Z,0.72
2023-03-11T06:32:31.036Z,0.72
2023-03-11T06:33:31.013Z,0.73
2023-03-11T06:34:31.669Z,0.74
2023-03-11T06:35:31.024Z,0.74
2023-03-11T06:36:30.986Z,0.75
2023-03-11T06:37:30.984Z,0.76
2023-03-11T06:38:31.048Z,0.77
2023-03-11T06:39:30.930Z,0.79
2023-03-11T06:40:30.927Z,0.80
2023-03-11T06:41:30.918Z,0.81
2023-03-11T06:42:30.901Z,0.81
2023-03-11T06:43:30.899Z,0.81
2023-03-11T06:44:30.913Z,0.80
2023-03-11T06:45:31.150Z,0.80
2023-03-11T06:46:30.981Z,0.80
2023-03-11T06:47:30.855Z,0.80
2023-03-11T06:48:30.835Z,0.80
2023-03-11T06:49:30.831Z,0.80
2023-03-11T06:50:30.818Z,0.80
2023-03-11T06:51:30.802Z,0.80
2023-03-11T06:52:30.776Z,0.81
2023-03-11T06:53:30.769Z,0.81
2023-03-11T06:54:30.758Z,0.82
2023-03-11T06:55:30.742Z,0.83
2023-03-11T06:56:30.734Z,0.83
2023-03-11T06:57:30.698Z,0.83
2023-03-11T06:58:30.688Z,0.83
2023-03-11T06:59:30.691Z,0.82
2023-03-11T07:00:30.724Z,0.81
2023-03-11T07:01:30.742Z,0.80
2023-03-11T07:02:30.630Z,0.78
2023-03-11T07:03:30.647Z,0.76
2023-03-11T07:04:30.627Z,0.74
2023-03-11T07:05:30.598Z,0.71
2023-03-11T07:06:30.590Z,0.68
2023-03-11T07:07:30.616Z,0.67
2023-03-11T07:08:30.586Z,0.66
2023-03-11T07:09:30.538Z,0.66
2023-03-11T07:10:30.638Z,0.67
2023-03-11T07:11:30.553Z,0.67
2023-03-11T07:12:30.525Z,0.67
2023-03-11T07:13:30.509Z,0.67
2023-03-11T07:14:30.488Z,0.66
2023-03-11T07:15:30.493Z,0.66
2023-03-11T07:16:30.541Z,0.66
2023-03-11T07:17:30.439Z,0.66
2023-03-11T07:18:30.490Z,0.67
2023-03-11T07:19:30.416Z,0.68
2023-03-11T07:20:30.463Z,0.69
2023-03-11T07:21:30.418Z,0.69
2023-03-11T07:22:30.428Z,0.70
2023-03-11T07:23:30.361Z,0.71
2023-03-11T07:24:30.394Z,0.72
2023-03-11T07:25:30.368Z,0.72
2023-03-11T07:26:30.332Z,0.73
2023-03-11T07:27:30.339Z,0.73
2023-03-11T07:28:30.341Z,0.73
2023-03-11T07:29:30.290Z,0.73
2023-03-11T07:30:30.363Z,0.73
2023-03-11T07:31:30.372Z,0.72
2023-03-11T07:32:30.325Z,0.73
2023-03-11T07:33:31.685Z,0.73
2023-03-11T07:34:30.223Z,0.75
2023-03-11T07:35:30.323Z,0.77
2023-03-11T07:36:30.245Z,0.78
2023-03-11T07:37:30.196Z,0.80
2023-03-11T07:38:30.446Z,0.80
2023-03-11T07:39:30.179Z,0.81
2023-03-11T07:40:30.272Z,0.81
2023-03-11T07:41:30.141Z,0.82
2023-03-11T07:42:30.134Z,0.83
2023-03-11T07:43:30.136Z,0.84
2023-03-11T07:44:30.100Z,0.85
2023-03-11T07:45:30.099Z,0.86
2023-03-11T07:46:30.190Z,0.87
2023-03-11T07:47:30.076Z,0.88
2023-03-11T07:48:30.612Z,0.88
2023-03-11T07:49:30.024Z,0.88
2023-03-11T07:50:30.158Z,0.87
2023-03-11T07:51:30.051Z,0.87
2023-03-11T07:52:30.027Z,0.87
2023-03-11T07:53:29.971Z,0.87
2023-03-11T07:54:29.965Z,0.86
2023-03-11T07:55:29.950Z,0.85
2023-03-11T07:56:29.952Z,0.83
2023-03-11T07:57:29.923Z,0.81
2023-03-11T07:58:29.917Z,0.79
2023-03-11T07:59:29.893Z,0.78
2023-03-11T08:00:29.882Z,0.78
2023-03-11T08:01:29.889Z,0.77
2023-03-11T08:02:29.946Z,0.76
2023-03-11T08:03:29.940Z,0.75
2023-03-11T08:04:29.848Z,0.75
2023-03-11T08:05:29.812Z,0.75
2023-03-11T08:06:29.806Z,0.76
2023-03-11T08:07:29.787Z,0.77
2023-03-11T08:08:29.786Z,0.79
2023-03-11T08:09:29.779Z,0.80
2023-03-11T08:10:29.763Z,0.81
2023-03-11T08:11:29.757Z,0.83
2023-03-11T08:12:29.732Z,0.85
2023-03-11T08:13:29.726Z,0.87
2023-03-11T08:14:29.714Z,0.89
2023-03-11T08:15:29.725Z,0.91
2023-03-11T08:16:29.700Z,0.93
2023-03-11T08:17:29.661Z,0.97
2023-03-11T08:18:29.692Z,1.01
2023-03-11T08:19:29.638Z,1.05
2023-03-11T08:20:29.632Z,1.09
2023-03-11T08:21:29.612Z,1.11
2023-03-11T08:22:29.602Z,1.11
2023-03-11T08:23:29.623Z,1.12
2023-03-11T08:24:29.588Z,1.12
2023-03-11T08:25:29.560Z,1.13
2023-03-11T08:26:29.568Z,1.13
2023-03-11T08:27:29.539Z,1.13
2023-03-11T08:28:29.545Z,1.14
2023-03-11T08:29:29.514Z,1.14
2023-03-11T08:30:29.534Z,1.15
2023-03-11T08:31:29.552Z,1.16
2023-03-11T08:32:29.527Z,1.17
2023-03-11T08:33:29.468Z,1.18
2023-03-11T08:34:29.472Z,1.17
2023-03-11T08:35:29.435Z,1.16
2023-03-11T08:36:29.462Z,1.16
2023-03-11T08:37:29.420Z,1.16
2023-03-11T08:38:29.466Z,1.17
2023-03-11T08:39:29.395Z,1.17
2023-03-11T08:40:29.387Z,1.18
2023-03-11T08:41:29.372Z,1.19
2023-03-11T08:42:29.375Z,1.19
2023-03-11T08:43:29.338Z,1.20
2023-03-11T08:44:29.347Z,1.21
2023-03-11T08:45:29.311Z,1.23
2023-03-11T08:46:29.390Z,1.26
2023-03-11T08:47:29.278Z,1.28
2023-03-11T08:48:29.409Z,1.30
2023-03-11T08:49:29.295Z,1.32
2023-03-11T08:50:29.486Z,1.34
2023-03-11T08:51:32.088Z,1.35
2023-03-11T08:52:49.254Z,1.36
2023-03-11T08:53:33.822Z,1.37
2023-03-11T08:54:30.073Z,1.38
2023-03-11T08:55:29.406Z,1.38
2023-03-11T08:56:29.210Z,1.39
2023-03-11T08:57:29.208Z,1.40
2023-03-11T08:58:29.192Z,1.40
2023-03-11T08:59:29.191Z,1.40
2023-03-11T09:00:29.146Z,1.41
2023-03-11T09:01:29.088Z,1.41
2023-03-11T09:02:29.118Z,1.40
2023-03-11T09:03:29.062Z,1.39
2023-03-11T09:04:29.075Z,1.38
2023-03-11T09:05:29.097Z,1.38
2023-03-11T09:06:29.026Z,1.38
2023-03-11T09:07:29.028Z,1.39
2023-03-11T09:08:29.018Z,1.38
2023-03-11T09:09:29.008Z,1.38
2023-03-11T09:10:28.981Z,1.39
2023-03-11T09:11:28.968Z,1.40
2023-03-11T09:12:28.985Z,1.42
2023-03-11T09:13:28.932Z,1.44
2023-03-11T09:14:28.941Z,1.46
2023-03-11T09:15:28.914Z,1.48
2023-03-11T09:16:28.986Z,1.51
2023-03-11T09:17:28.877Z,1.53
2023-03-11T09:18:28.867Z,1.53
2023-03-11T09:19:28.881Z,1.52
2023-03-11T09:20:28.880Z,1.51
2023-03-11T09:21:28.877Z,1.51
2023-03-11T09:22:29.455Z,1.51
2023-03-11T09:23:28.808Z,1.53
2023-03-11T09:24:28.792Z,1.54
2023-03-11T09:25:28.792Z,1.56
2023-03-11T09:26:28.785Z,1.57
2023-03-11T09:27:28.753Z,1.58
2023-03-11T09:28:28.749Z,1.60
2023-03-11T09:29:28.754Z,1.62
2023-03-11T09:30:28.736Z,1.65
2023-03-11T09:31:28.743Z,1.66
2023-03-11T09:32:28.723Z,1.66
2023-03-11T09:33:28.678Z,1.66
2023-03-11T09:34:28.657Z,1.66
2023-03-11T09:35:28.725Z,1.68
2023-03-11T09:36:28.666Z,1.70
2023-03-11T09:37:28.641Z,1.72
2023-03-11T09:38:28.611Z,1.75
2023-03-11T09:39:28.632Z,1.77
2023-03-11T09:40:28.611Z,1.78
2023-03-11T09:41:28.594Z,1.80
2023-03-11T09:42:28.584Z,1.82
2023-03-11T09:43:28.546Z,1.83
2023-03-11T09:44:28.540Z,1.85
2023-03-11T09:45:28.560Z,1.86
2023-03-11T09:46:28.645Z,1.88
2023-03-11T09:47:28.544Z,1.90
2023-03-11T09:48:28.522Z,1.91
2023-03-11T09:49:28.482Z,1.92
2023-03-11T09:50:28.489Z,1.93
2023-03-11T09:51:28.474Z,1.95
2023-03-11T09:52:28.446Z,1.96
2023-03-11T09:53:28.451Z,1.99
2023-03-11T09:54:28.423Z,2.01
2023-03-11T09:55:28.437Z,2.03
2023-03-11T09:56:29.312Z,2.04
2023-03-11T09:57:28.403Z,2.04
2023-03-11T09:58:28.388Z,2.04
2023-03-11T09:59:28.350Z,2.04
2023-03-11T10:00:28.335Z,2.05
2023-03-11T10:01:28.349Z,2.07
2023-03-11T10:02:28.388Z,2.11
2023-03-11T10:03:28.300Z,2.14
2023-03-11T10:04:28.275Z,2.18
2023-03-11T10:05:28.291Z,2.21
2023-03-11T10:06:28.310Z,2.22
2023-03-11T10:07:28.239Z,2.22
2023-03-11T10:08:28.276Z,2.21
2023-03-11T10:09:28.213Z,2.21
2023-03-11T10:10:28.238Z,2.22
2023-03-11T10:11:28.258Z,2.23
2023-03-11T10:12:28.920Z,2.24
2023-03-11T10:13:28.366Z,2.26
2023-03-11T10:14:28.186Z,2.28
2023-03-11T10:15:28.174Z,2.29
2023-03-11T10:16:28.200Z,2.29
2023-03-11T10:17:28.156Z,2.29
2023-03-11T10:18:28.106Z,2.28
2023-03-11T10:19:28.091Z,2.26
2023-03-11T10:20:28.071Z,2.24
2023-03-11T10:21:28.094Z,2.21
2023-03-11T10:22:28.129Z,2.18
2023-03-11T10:23:28.050Z,2.16
2023-03-11T10:24:28.052Z,2.15
2023-03-11T10:25:28.018Z,2.14
2023-03-11T10:26:27.993Z,2.14
2023-03-11T10:27:28.009Z,2.16
2023-03-11T10:28:27.964Z,2.18
2023-03-11T10:29:27.992Z,2.20
2023-03-11T10:30:27.971Z,2.22
2023-03-11T10:31:28.015Z,2.25
2023-03-11T10:32:28.027Z,2.29
2023-03-11T10:33:28.065Z,2.33
2023-03-11T10:34:27.892Z,2.36
2023-03-11T10:35:27.883Z,2.39
2023-03-11T10:36:27.901Z,2.43
2023-03-11T10:37:38.845Z,2.46
2023-03-11T10:38:27.851Z,2.49
2023-03-11T10:39:27.829Z,2.53
2023-03-11T10:40:27.829Z,2.57
2023-03-11T10:41:27.810Z,2.60
2023-03-11T10:42:27.811Z,2.64
2023-03-11T10:43:27.786Z,2.67
2023-03-11T10:44:27.765Z,2.69
2023-03-11T10:45:27.747Z,2.71
2023-03-11T10:46:27.738Z,2.72
2023-03-11T10:47:27.723Z,2.73
2023-03-11T10:48:27.735Z,2.72
2023-03-11T10:49:27.699Z,2.73
2023-03-11T10:50:27.682Z,2.75
2023-03-11T10:51:27.685Z,2.77
2023-03-11T10:52:27.660Z,2.79
2023-03-11T10:53:27.673Z,2.82
2023-03-11T10:54:27.635Z,2.86
2023-03-11T10:55:27.635Z,2.91
2023-03-11T10:56:27.640Z,2.97
2023-03-11T10:57:27.614Z,3.04
2023-03-11T10:58:27.645Z,3.10
2023-03-11T10:59:27.581Z,3.15
2023-03-11T11:00:27.572Z,3.17
2023-03-11T11:01:27.606Z,3.19
2023-03-11T11:02:27.546Z,3.21
2023-03-11T11:03:27.540Z,3.22
2023-03-11T11:04:27.555Z,3.23
2023-03-11T11:05:27.509Z,3.25
2023-03-11T11:06:27.485Z,3.26
2023-03-11T11:07:27.466Z,3.29
2023-03-11T11:08:27.466Z,3.32
2023-03-11T11:09:27.438Z,3.36
2023-03-11T11:10:27.476Z,3.39
2023-03-11T11:11:27.421Z,3.42
2023-03-11T11:12:27.406Z,3.44
2023-03-11T11:13:27.407Z,3.44
2023-03-11T11:14:27.386Z,3.44
2023-03-11T11:15:27.373Z,3.44
2023-03-11T11:16:27.399Z,3.44
2023-03-11T11:17:27.339Z,3.43
2023-03-11T11:18:27.346Z,3.43
2023-03-11T11:19:27.342Z,3.43
2023-03-11T11:20:34.423Z,3.42
2023-03-11T11:21:27.989Z,3.41
2023-03-11T11:22:27.279Z,3.40
2023-03-11T11:23:27.272Z,3.41
2023-03-11T11:24:27.331Z,3.41
2023-03-11T11:25:27.286Z,3.42
2023-03-11T11:26:27.256Z,3.43
2023-03-11T11:27:27.233Z,3.44
2023-03-11T11:28:27.191Z,3.46
2023-03-11T11:29:27.192Z,3.49
2023-03-11T11:30:27.180Z,3.53
2023-03-11T11:31:27.166Z,3.57
2023-03-11T11:32:27.253Z,3.61
2023-03-11T11:33:27.136Z,3.65
2023-03-11T11:34:27.137Z,3.68
2023-03-11T11:35:27.133Z,3.69
2023-03-11T11:36:27.088Z,3.69
2023-03-11T11:37:27.077Z,3.68
2023-03-11T11:38:27.074Z,3.67
2023-03-11T11:39:27.072Z,3.68
2023-03-11T11:40:27.052Z,3.68
2023-03-11T11:41:27.030Z,3.68
2023-03-11T11:42:27.021Z,3.67
2023-03-11T11:43:27.015Z,3.66
2023-03-11T11:44:27.025Z,3.64
2023-03-11T11:45:26.977Z,3.60
2023-03-11T11:46:27.104Z,3.57
2023-03-11T11:47:26.952Z,3.55
2023-03-11T11:48:26.944Z,3.53
2023-03-11T11:49:26.925Z,3.54
2023-03-11T11:50:26.906Z,3.56
2023-03-11T11:51:26.902Z,3.58
2023-03-11T11:52:26.906Z,3.61
2023-03-11T11:53:26.898Z,3.64
2023-03-11T11:54:26.873Z,3.67
2023-03-11T11:55:26.866Z,3.69
2023-03-11T11:56:26.832Z,3.70
2023-03-11T11:57:26.817Z,3.72
2023-03-11T11:58:26.807Z,3.73
2023-03-11T11:59:26.837Z,3.75
2023-03-11T12:00:26.817Z,3.77
2023-03-11T12:01:26.767Z,3.80
2023-03-11T12:02:26.750Z,3.84
2023-03-11T12:03:26.835Z,3.89
2023-03-11T12:04:26.753Z,3.96
2023-03-11T12:05:26.779Z,4.02
2023-03-11T12:06:26.701Z,4.07
2023-03-11T12:07:26.699Z,4.12
2023-03-11T12:08:26.718Z,4.17
2023-03-11T12:09:26.678Z,4.24
2023-03-11T12:10:26.740Z,4.31
2023-03-11T12:11:26.689Z,4.38
2023-03-11T12:12:26.628Z,4.44
2023-03-11T12:13:26.617Z,4.50
2023-03-11T12:14:26.594Z,4.54
2023-03-11T12:15:26.619Z,4.56
2023-03-11T12:16:26.570Z,4.56
2023-03-11T12:17:26.571Z,4.57
2023-03-11T12:18:26.571Z,4.59
2023-03-11T12:19:26.578Z,4.61
2023-03-11T12:20:26.556Z,4.64
2023-03-11T12:21:26.514Z,4.66
2023-03-11T12:22:26.491Z,4.67
2023-03-11T12:23:26.484Z,4.68
2023-03-11T12:24:26.473Z,4.70
2023-03-11T12:25:26.469Z,4.74
2023-03-11T12:26:26.462Z,4.79
2023-03-11T12:27:26.461Z,4.84
2023-03-11T12:28:26.416Z,4.85
2023-03-11T12:29:26.456Z,4.87
2023-03-11T12:30:26.404Z,4.92
2023-03-11T12:31:26.381Z,4.97
2023-03-11T12:32:26.405Z,5.03
2023-03-11T12:33:26.369Z,5.09
2023-03-11T12:34:26.342Z,5.13
2023-03-11T12:35:26.381Z,5.16
2023-03-11T12:36:26.334Z,5.17
2023-03-11T12:37:26.300Z,5.18
2023-03-11T12:38:26.299Z,5.20
2023-03-11T12:39:26.278Z,5.23
2023-03-11T12:40:26.262Z,5.24
2023-03-11T12:41:26.274Z,5.25
2023-03-11T12:42:26.243Z,5.24
2023-03-11T12:43:26.233Z,5.22
2023-03-11T12:44:26.224Z,5.17
2023-03-11T12:45:26.202Z,5.13
2023-03-11T12:46:26.259Z,5.08
2023-03-11T12:47:26.172Z,5.04
2023-03-11T12:48:26.171Z,4.99
2023-03-11T12:49:26.172Z,4.93
2023-03-11T12:50:26.140Z,4.87
2023-03-11T12:51:26.128Z,4.83
2023-03-11T12:52:26.117Z,4.83
2023-03-11T12:53:26.144Z,4.88
2023-03-11T12:54:26.092Z,4.97
2023-03-11T12:55:26.081Z,5.06
2023-03-11T12:56:26.064Z,5.14
2023-03-11T12:57:26.074Z,5.21
2023-03-11T12:58:26.047Z,5.28
2023-03-11T12:59:26.031Z,5.36
2023-03-11T13:00:26.006Z,5.43
2023-03-11T13:01:26.108Z,5.50
2023-03-11T13:02:25.980Z,5.57
2023-03-11T13:03:25.972Z,5.63
2023-03-11T13:04:25.945Z,5.68
2023-03-11T13:05:25.972Z,5.71
2023-03-11T13:06:25.994Z,5.74
2023-03-11T13:07:25.942Z,5.78
2023-03-11T13:08:25.902Z,5.84
2023-03-11T13:09:25.906Z,5.89
2023-03-11T13:10:25.909Z,5.90
2023-03-11T13:11:25.906Z,5.87
2023-03-11T13:12:25.896Z,5.83
2023-03-11T13:13:25.845Z,5.80
2023-03-11T13:14:25.829Z,5.79
2023-03-11T13:15:25.814Z,5.78
2023-03-11T13:16:25.830Z,5.77
2023-03-11T13:17:25.861Z,5.78
2023-03-11T13:18:25.813Z,5.83
2023-03-11T13:19:25.814Z,5.90